createdAt,value
2022-10-13T00:01:39.549Z,102321.09
2022-10-13T00:04:09.699Z,102318.53
2022-10-13T00:06:39.753Z,102313.28
2022-10-13T00:09:09.944Z,102308.88
2022-10-13T00:11:40.084Z,102301.06
2022-10-13T00:14:10.234Z,102307.00
2022-10-13T00:16:40.373Z,102318.44
2022-10-13T00:19:14.839Z,102320.19
2022-10-13T00:21:45.271Z,102314.94
2022-10-13T00:24:15.483Z,102318.34
2022-10-13T00:26:45.649Z,102324.47
2022-10-13T00:29:15.823Z,102326.22
2022-10-13T00:31:46.091Z,102314.03
2022-10-13T00:34:16.210Z,102311.38
2022-10-13T00:36:46.506Z,102328.81
2022-10-13T00:39:16.652Z,102321.84
2022-10-13T00:41:46.828Z,102322.69
2022-10-13T00:44:54.304Z,102311.38
2022-10-13T00:47:26.536Z,102322.66
2022-10-13T00:49:57.267Z,102305.16
2022-10-13T00:52:28.346Z,102305.13
2022-10-13T00:54:59.903Z,102299.88
2022-10-13T00:57:30.209Z,102313.03
2022-10-13T01:00:03.002Z,102312.97
2022-10-13T01:02:38.051Z,102312.09
2022-10-13T01:05:08.798Z,102310.19
2022-10-13T01:07:39.012Z,102297.00
2022-10-13T01:10:09.186Z,102329.28
2022-10-13T01:13:09.265Z,102317.03
2022-10-13T01:15:51.544Z,102310.13
2022-10-13T01:18:43.082Z,102306.63
2022-10-13T01:21:36.490Z,102317.22
2022-10-13T01:24:21.914Z,102313.72
2022-10-13T01:27:06.868Z,102308.59
2022-10-13T01:30:08.916Z,102314.75
2022-10-13T01:33:17.941Z,102306.06
2022-10-13T01:36:06.637Z,102297.41
2022-10-13T01:38:43.127Z,102304.47
2022-10-13T01:41:37.454Z,102300.13
2022-10-13T01:44:29.486Z,102299.31
2022-10-13T01:47:01.492Z,102282.78
2022-10-13T01:49:37.613Z,102293.31
2022-10-13T01:52:15.644Z,102275.84
2022-10-13T01:54:51.461Z,102285.56
2022-10-13T01:57:47.641Z,102283.91
2022-10-13T02:00:21.336Z,102278.59
2022-10-13T02:03:26.809Z,102286.59
2022-10-13T02:06:18.289Z,102287.50
2022-10-13T02:08:58.310Z,102282.34
2022-10-13T02:11:28.705Z,102281.47
2022-10-13T02:14:23.169Z,102275.44
2022-10-13T02:16:56.217Z,102274.66
2022-10-13T02:19:28.360Z,102271.13
2022-10-13T02:21:59.071Z,102268.53
2022-10-13T02:24:29.369Z,102270.34
2022-10-13T02:26:59.930Z,102248.53
2022-10-13T02:29:30.039Z,102270.50
2022-10-13T02:32:00.420Z,102257.47
2022-10-13T02:34:30.841Z,102246.06
2022-10-13T02:37:00.966Z,102261.03
2022-10-13T02:39:31.033Z,102256.66
2022-10-13T02:42:01.147Z,102256.72
2022-10-13T02:44:31.250Z,102257.63
2022-10-13T02:47:01.401Z,102267.22
2022-10-13T02:49:31.649Z,102247.22
2022-10-13T02:52:01.920Z,102254.19
2022-10-13T02:54:32.054Z,102256.81
2022-10-13T02:57:02.131Z,102255.13
2022-10-13T02:59:32.281Z,102230.59
2022-10-13T03:02:02.657Z,102248.16
2022-10-13T03:04:35.028Z,102251.69
2022-10-13T03:07:05.260Z,102250.84
2022-10-13T03:09:35.513Z,102242.97
2022-10-13T03:12:06.015Z,102244.69
2022-10-13T03:14:36.179Z,102230.78
2022-10-13T03:17:08.825Z,102245.59
2022-10-13T03:19:42.637Z,102249.09
2022-10-13T03:22:15.606Z,102245.66
2022-10-13T03:24:46.229Z,102239.56
2022-10-13T03:27:16.389Z,102230.81
2022-10-13T03:29:46.635Z,102249.22
2022-10-13T03:32:17.426Z,102247.44
2022-10-13T03:34:47.811Z,102241.38
2022-10-13T03:37:18.240Z,102237.88
2022-10-13T03:39:48.468Z,102233.50
2022-10-13T03:42:18.835Z,102237.03
2022-10-13T03:44:53.687Z,102237.94
2022-10-13T03:47:26.141Z,102228.34
2022-10-13T03:49:56.395Z,102237.13
2022-10-13T03:52:26.489Z,102224.06
2022-10-13T03:54:56.645Z,102215.25
2022-10-13T03:57:26.760Z,102223.19
2022-10-13T03:59:57.830Z,102236.28
2022-10-13T04:02:28.031Z,102234.53
2022-10-13T04:04:58.121Z,102228.53
2022-10-13T04:07:28.292Z,102235.47
2022-10-13T04:09:59.553Z,102235.50
2022-10-13T04:12:29.627Z,102218.03
2022-10-13T04:14:59.750Z,102232.03
2022-10-13T04:17:29.847Z,102225.84
2022-10-13T04:19:59.987Z,102232.91
2022-10-13T04:22:30.037Z,102232.91
2022-10-13T04:25:00.231Z,102216.28
2022-10-13T04:27:31.006Z,102222.41
2022-10-13T04:30:01.257Z,102221.63
2022-10-13T04:32:31.425Z,102219.00
2022-10-13T04:35:01.607Z,102218.13
2022-10-13T04:37:31.670Z,102226.88
2022-10-13T04:40:01.861Z,102211.16
2022-10-13T04:42:31.940Z,102228.63
2022-10-13T04:45:02.159Z,102211.19
2022-10-13T04:47:36.798Z,102212.06
2022-10-13T04:50:07.761Z,102224.34
2022-10-13T04:52:37.919Z,102225.25
2022-10-13T04:55:09.295Z,102230.47
2022-10-13T04:57:39.393Z,102215.56
2022-10-13T05:00:10.883Z,102229.56
2022-10-13T05:02:41.030Z,102219.91
2022-10-13T05:05:11.335Z,102239.13
2022-10-13T05:07:41.461Z,102235.69
2022-10-13T05:10:11.665Z,102234.81
2022-10-13T05:12:41.822Z,102227.03
2022-10-13T05:15:11.922Z,102224.34
2022-10-13T05:17:42.088Z,102219.22
2022-10-13T05:20:12.712Z,102220.09
2022-10-13T05:22:43.224Z,102221.00
2022-10-13T05:25:13.355Z,102219.22
2022-10-13T05:27:45.389Z,102224.53
2022-10-13T05:30:15.514Z,102217.56
2022-10-13T05:32:46.820Z,102217.56
2022-10-13T05:35:18.356Z,102202.69
2022-10-13T05:37:48.507Z,102212.31
2022-10-13T05:40:22.181Z,102214.16
2022-10-13T05:42:52.906Z,102214.16
2022-10-13T05:45:24.502Z,102198.41
2022-10-13T05:47:54.618Z,102203.72
2022-10-13T05:50:24.943Z,102204.59
2022-10-13T05:52:55.110Z,102203.78
2022-10-13T05:55:25.270Z,102201.19
2022-10-13T05:57:55.476Z,102202.91
2022-10-13T06:00:25.657Z,102198.56
2022-10-13T06:03:07.723Z,102206.44
2022-10-13T06:05:38.526Z,102195.06
2022-10-13T06:08:09.631Z,102197.69
2022-10-13T06:10:40.682Z,102204.59
2022-10-13T06:13:10.729Z,102202.03
2022-10-13T06:15:40.929Z,102200.34
2022-10-13T06:18:10.972Z,102204.66
2022-10-13T06:20:41.225Z,102200.38
2022-10-13T06:23:12.720Z,102194.25
2022-10-13T06:25:50.325Z,102196.97
2022-10-13T06:28:21.033Z,102202.19
2022-10-13T06:30:56.626Z,102198.69
2022-10-13T06:33:26.838Z,102196.97
2022-10-13T06:36:01.073Z,102180.44
2022-10-13T06:38:31.632Z,102195.31
2022-10-13T06:41:03.821Z,102192.81
2022-10-13T06:43:39.911Z,102201.53
2022-10-13T06:46:11.318Z,102191.94
2022-10-13T06:48:41.754Z,102192.84
2022-10-13T06:51:12.424Z,102178.03
2022-10-13T06:53:42.838Z,102178.06
2022-10-13T06:56:14.362Z,102180.75
2022-10-13T06:58:44.891Z,102169.41
2022-10-13T07:01:15.205Z,102164.09
2022-10-13T07:03:49.447Z,102157.13
2022-10-13T07:06:19.649Z,102179.88
2022-10-13T07:08:49.866Z,102181.66
2022-10-13T07:11:20.611Z,102191.28
2022-10-13T07:13:50.863Z,102188.69
2022-10-13T07:16:21.063Z,102168.59
2022-10-13T07:18:51.243Z,102173.88
2022-10-13T07:21:21.872Z,102177.34
2022-10-13T07:23:52.036Z,102180.06
2022-10-13T07:26:22.629Z,102180.16
2022-10-13T07:28:53.160Z,102173.19
2022-10-13T07:31:23.316Z,102167.97
2022-10-13T07:33:53.390Z,102179.31
2022-10-13T07:36:23.541Z,102171.53
2022-10-13T07:38:53.798Z,102159.38
2022-10-13T07:41:24.126Z,102154.09
2022-10-13T07:43:57.842Z,102164.66
2022-10-13T07:46:28.077Z,102167.31
2022-10-13T07:48:58.573Z,102158.63
2022-10-13T07:51:28.798Z,102154.28
2022-10-13T07:53:59.010Z,102149.97
2022-10-13T07:56:29.215Z,102133.34
2022-10-13T07:58:59.431Z,102145.59
2022-10-13T08:01:29.528Z,102134.28
2022-10-13T08:03:59.778Z,102143.91
2022-10-13T08:06:30.112Z,102141.31
2022-10-13T08:09:00.893Z,102140.47
2022-10-13T08:11:31.994Z,102141.34
2022-10-13T08:14:02.660Z,102131.75
2022-10-13T08:16:33.479Z,102125.72
2022-10-13T08:19:03.707Z,102118.75
2022-10-13T08:21:57.011Z,102127.50
2022-10-13T08:24:24.326Z,102127.53
2022-10-13T08:26:54.920Z,102117.09
2022-10-13T08:29:25.132Z,102124.13
2022-10-13T08:31:55.691Z,102128.50
2022-10-13T08:34:26.138Z,102105.78
2022-10-13T08:36:57.610Z,102108.47
2022-10-13T08:39:28.207Z,102104.16
2022-10-13T08:41:59.021Z,102100.66
2022-10-13T08:47:40.599Z,102107.72
2022-10-13T08:50:23.415Z,102101.63
2022-10-13T08:53:07.930Z,102076.28
2022-10-13T08:55:43.022Z,102096.47
2022-10-13T08:58:20.053Z,102098.22
2022-10-13T09:01:09.379Z,102076.41
2022-10-13T09:03:53.051Z,102074.72
2022-10-13T09:06:29.464Z,102072.97
2022-10-13T09:09:02.214Z,102064.25
2022-10-13T09:11:36.037Z,102066.88
2022-10-13T09:14:31.507Z,102068.66
2022-10-13T09:17:22.529Z,102066.06
2022-10-13T09:20:33.975Z,102062.56
2022-10-13T09:23:06.973Z,102071.28
2022-10-13T09:25:43.573Z,102062.59
2022-10-13T09:28:24.011Z,102060.88
2022-10-13T09:31:09.154Z,102067.84
2022-10-13T09:33:42.102Z,102062.63
2022-10-13T09:36:15.394Z,102056.50
2022-10-13T09:39:15.508Z,102053.91
2022-10-13T09:41:45.791Z,102053.91
2022-10-13T09:44:28.964Z,102059.16
2022-10-13T09:47:02.945Z,102046.09
2022-10-13T09:49:40.221Z,102050.47
2022-10-13T09:52:13.455Z,102047.84
2022-10-13T09:54:56.452Z,102047.88
2022-10-13T09:57:41.966Z,102043.50
2022-10-13T10:00:22.827Z,102050.50
2022-10-13T10:02:55.828Z,102044.41
2022-10-13T10:05:33.468Z,102046.13
2022-10-13T10:08:14.151Z,102033.94
2022-10-13T10:10:44.990Z,102035.69
2022-10-13T10:13:15.857Z,102033.06
2022-10-13T10:16:06.574Z,102037.41
2022-10-13T10:18:39.253Z,102040.91
2022-10-13T10:21:23.521Z,102027.84
2022-10-13T10:24:19.506Z,102033.94
2022-10-13T10:27:22.903Z,102036.63
2022-10-13T10:30:06.113Z,102050.59
2022-10-13T10:32:43.425Z,102040.97
2022-10-13T10:35:24.792Z,102027.03
2022-10-13T10:38:07.231Z,102021.78
2022-10-13T10:40:49.601Z,102001.72
2022-10-13T10:43:34.966Z,102006.06
2022-10-13T10:46:19.534Z,102009.56
2022-10-13T10:48:54.181Z,102006.06
2022-10-13T10:51:31.265Z,101987.72
2022-10-13T10:54:08.442Z,102006.91
2022-10-13T10:56:49.377Z,101990.31
2022-10-13T10:59:29.457Z,102000.78
2022-10-13T11:02:08.396Z,101992.06
2022-10-13T11:04:44.340Z,101999.00
2022-10-13T11:07:34.340Z,101979.81
2022-10-13T11:10:19.162Z,101971.06
2022-10-13T11:13:09.152Z,101963.19
2022-10-13T11:15:40.704Z,101969.28
2022-10-13T11:18:48.415Z,101973.66
2022-10-13T11:21:18.585Z,101959.72
2022-10-13T11:23:50.329Z,101971.03
2022-10-13T11:26:26.436Z,101964.91
2022-10-13T11:28:57.182Z,101957.03
2022-10-13T11:31:35.201Z,101972.72
2022-10-13T11:34:26.743Z,101956.97
2022-10-13T11:36:58.680Z,101946.44
2022-10-13T11:39:37.557Z,101942.97
2022-10-13T11:42:35.355Z,101932.44
2022-10-13T11:45:36.820Z,101925.41
2022-10-13T11:48:38.913Z,101918.41
2022-10-13T11:51:16.420Z,101929.78
2022-10-13T11:54:08.664Z,101926.25
2022-10-13T11:56:49.046Z,101920.13
2022-10-13T11:59:28.195Z,101911.31
2022-10-13T12:02:19.425Z,101915.66
2022-10-13T12:05:21.511Z,101902.59
2022-10-13T12:07:54.958Z,101908.69
2022-10-13T12:10:38.085Z,101889.47
2022-10-13T12:13:08.810Z,101905.13
2022-10-13T12:15:43.489Z,101885.09
2022-10-13T12:18:27.138Z,101891.97
2022-10-13T12:20:59.313Z,101887.63
2022-10-13T12:23:32.127Z,101891.13
2022-10-13T12:26:02.690Z,101903.28
2022-10-13T12:28:50.684Z,101892.78
2022-10-13T12:31:28.593Z,101897.09
2022-10-13T12:34:02.984Z,101880.44
2022-10-13T12:36:35.532Z,101882.22
2022-10-13T12:39:11.063Z,101878.63
2022-10-13T12:41:43.826Z,101880.34
2022-10-13T12:44:20.094Z,101876.00
2022-10-13T12:46:53.803Z,101883.88
2022-10-13T12:49:27.429Z,101881.25
2022-10-13T12:52:09.471Z,101872.47
2022-10-13T12:54:47.538Z,101869.84
2022-10-13T12:57:36.311Z,101885.56
2022-10-13T13:00:27.714Z,101871.53
2022-10-13T13:03:00.411Z,101860.25
2022-10-13T13:05:33.430Z,101864.56
2022-10-13T13:08:06.660Z,101854.00
2022-10-13T13:10:36.815Z,101860.00
2022-10-13T13:13:14.575Z,101845.06
2022-10-13T13:15:44.764Z,101861.72
2022-10-13T13:18:26.780Z,101858.09
2022-10-13T13:20:57.253Z,101850.22
2022-10-13T13:23:33.864Z,101848.44
2022-10-13T13:26:15.416Z,101850.16
2022-10-13T13:28:48.591Z,101858.91
2022-10-13T13:31:21.376Z,101849.31
2022-10-13T13:33:53.768Z,101837.09
2022-10-13T13:36:25.600Z,101843.19
2022-10-13T13:38:56.086Z,101831.88
2022-10-13T13:41:28.102Z,101823.22
2022-10-13T13:43:58.227Z,101839.72
2022-10-13T13:46:29.364Z,101845.78
2022-10-13T13:48:59.440Z,101844.09
2022-10-13T13:51:29.945Z,101822.19
2022-10-13T13:54:00.164Z,101830.94
2022-10-13T13:56:30.343Z,101843.09
2022-10-13T13:59:00.538Z,101836.16
2022-10-13T14:01:32.522Z,101841.34
2022-10-13T14:04:03.274Z,101837.75
2022-10-13T14:06:33.449Z,101845.66
2022-10-13T14:09:05.138Z,101829.88
2022-10-13T14:11:35.314Z,101828.09
2022-10-13T14:14:05.488Z,101828.16
2022-10-13T14:16:35.643Z,101834.25
2022-10-13T14:19:06.020Z,101826.44
2022-10-13T14:21:36.603Z,101808.06
2022-10-13T14:24:07.225Z,101831.56
2022-10-13T14:26:37.423Z,101824.63
2022-10-13T14:29:07.686Z,101808.97
2022-10-13T14:31:41.785Z,101825.47
2022-10-13T14:34:12.506Z,101813.28
2022-10-13T14:36:42.676Z,101814.19
2022-10-13T14:39:14.401Z,101817.66
2022-10-13T14:41:44.922Z,101815.09
2022-10-13T14:44:16.393Z,101805.50
2022-10-13T14:46:46.641Z,101804.66
2022-10-13T14:49:18.577Z,101805.50
2022-10-13T14:51:49.043Z,101809.91
2022-10-13T14:54:20.142Z,101802.94
2022-10-13T14:56:51.651Z,101808.22
2022-10-13T14:59:22.198Z,101800.47
2022-10-13T15:01:52.812Z,101788.25
2022-10-13T15:04:24.418Z,101803.13
2022-10-13T15:06:55.916Z,101798.81
2022-10-13T15:09:44.847Z,101797.16
2022-10-13T15:12:22.317Z,101798.13
2022-10-13T15:14:52.889Z,101798.22
2022-10-13T15:17:23.081Z,101786.94
2022-10-13T15:19:54.825Z,101794.88
2022-10-13T15:22:26.798Z,101789.75
2022-10-13T15:24:57.316Z,101784.53
2022-10-13T15:27:28.433Z,101782.00
2022-10-13T15:29:59.298Z,101796.00
2022-10-13T15:32:29.539Z,101793.44
2022-10-13T15:35:00.121Z,101781.28
2022-10-13T15:37:30.941Z,101781.28
2022-10-13T15:40:03.190Z,101780.50
2022-10-13T15:42:33.478Z,101774.47
2022-10-13T15:45:09.964Z,101778.81
2022-10-13T15:47:41.583Z,101784.03
2022-10-13T15:50:13.362Z,101792.84
2022-10-13T15:52:44.839Z,101781.53
2022-10-13T15:55:15.459Z,101779.81
2022-10-13T15:57:46.193Z,101784.22
2022-10-13T16:00:19.410Z,101773.78
2022-10-13T16:02:52.226Z,101773.78
2022-10-13T16:05:23.569Z,101772.06
2022-10-13T16:07:53.742Z,101773.84
2022-10-13T16:10:24.329Z,101762.53
2022-10-13T16:12:54.423Z,101771.28
2022-10-13T16:15:24.588Z,101766.09
2022-10-13T16:17:54.950Z,101779.19
2022-10-13T16:20:25.182Z,101780.06
2022-10-13T16:22:55.334Z,101776.56
2022-10-13T16:25:25.547Z,101767.84
2022-10-13T16:27:55.651Z,101779.19
2022-10-13T16:30:27.022Z,101773.13
2022-10-13T16:32:58.222Z,101759.16
2022-10-13T16:35:28.366Z,101780.09
2022-10-13T16:38:04.766Z,101781.84
2022-10-13T16:40:42.089Z,101772.25
2022-10-13T16:43:14.563Z,101781.84
2022-10-13T16:45:59.912Z,101780.97
2022-10-13T16:48:32.523Z,101772.28
2022-10-13T16:51:08.291Z,101778.38
2022-10-13T16:53:38.943Z,101766.22
2022-10-13T16:56:09.399Z,101771.41
2022-10-13T16:58:45.058Z,101768.84
2022-10-13T17:01:15.565Z,101778.41
2022-10-13T17:03:47.014Z,101777.53
2022-10-13T17:06:18.627Z,101778.41
2022-10-13T17:08:48.877Z,101774.94
2022-10-13T17:11:24.872Z,101774.94
2022-10-13T17:13:56.814Z,101766.22
2022-10-13T17:16:27.829Z,101770.59
2022-10-13T17:18:58.233Z,101771.47
2022-10-13T17:21:28.482Z,101766.22
2022-10-13T17:23:58.609Z,101763.59
2022-10-13T17:26:28.769Z,101767.09
2022-10-13T17:28:59.016Z,101761.88
2022-10-13T17:31:29.289Z,101754.91
2022-10-13T17:34:00.211Z,101766.25
2022-10-13T17:36:34.617Z,101767.97
2022-10-13T17:39:07.683Z,101771.47
2022-10-13T17:41:37.851Z,101754.91
2022-10-13T17:44:08.021Z,101761.88
2022-10-13T17:46:39.936Z,101761.00
2022-10-13T17:49:12.261Z,101763.63
2022-10-13T17:51:44.070Z,101754.91
2022-10-13T17:54:16.386Z,101746.22
2022-10-13T17:56:48.074Z,101758.41
2022-10-13T17:59:18.613Z,101757.53
2022-10-13T18:01:48.892Z,101732.28
2022-10-13T18:04:19.918Z,101752.28
2022-10-13T18:06:50.087Z,101757.53
2022-10-13T18:09:23.411Z,101754.91
2022-10-13T18:11:54.843Z,101763.63
2022-10-13T18:14:25.320Z,101760.13
2022-10-13T18:16:56.485Z,101758.38
2022-10-13T18:19:26.810Z,101750.56
2022-10-13T18:21:56.939Z,101739.22
2022-10-13T18:24:27.223Z,101734.00
2022-10-13T18:26:57.490Z,101733.13
2022-10-13T18:29:27.670Z,101739.22
2022-10-13T18:31:57.828Z,101740.97
2022-10-13T18:34:28.055Z,101741.84
2022-10-13T18:36:58.365Z,101748.81
2022-10-13T18:39:29.429Z,101732.25
2022-10-13T18:41:59.612Z,101739.22
2022-10-13T18:44:29.882Z,101751.41
2022-10-13T18:47:00.139Z,101736.59
2022-10-13T18:49:33.405Z,101742.69
2022-10-13T18:52:03.707Z,101736.59
2022-10-13T18:54:33.925Z,101738.34
2022-10-13T18:57:04.139Z,101741.81
2022-10-13T18:59:38.785Z,101740.97
2022-10-13T19:02:13.818Z,101733.13
2022-10-13T19:04:44.338Z,101720.03
2022-10-13T19:07:14.474Z,101740.94
2022-10-13T19:09:45.824Z,101732.22
2022-10-13T19:12:15.986Z,101728.72
2022-10-13T19:14:46.199Z,101737.47
2022-10-13T19:17:16.443Z,101733.97
2022-10-13T19:19:46.684Z,101733.97
2022-10-13T19:22:16.950Z,101720.91
2022-10-13T19:24:47.056Z,101719.13
2022-10-13T19:27:17.180Z,101713.91
2022-10-13T19:29:47.672Z,101706.09
2022-10-13T19:32:18.211Z,101710.44
2022-10-13T19:34:48.854Z,101709.56
2022-10-13T19:37:19.416Z,101724.38
2022-10-13T19:39:50.191Z,101714.78
2022-10-13T19:42:21.661Z,101714.78
2022-10-13T19:44:52.159Z,101712.16
2022-10-13T19:47:23.944Z,101706.09
2022-10-13T19:49:54.552Z,101695.63
2022-10-13T19:52:26.269Z,101691.28
2022-10-13T19:54:57.118Z,101706.06
2022-10-13T19:57:27.484Z,101696.50
2022-10-13T19:59:57.615Z,101710.41
2022-10-13T20:02:27.823Z,101705.19
2022-10-13T20:04:57.983Z,101704.31
2022-10-13T20:07:28.149Z,101699.94
2022-10-13T20:09:58.333Z,101699.09
2022-10-13T20:12:28.422Z,101709.50
2022-10-13T20:14:58.594Z,101698.19
2022-10-13T20:17:28.911Z,101673.78
2022-10-13T20:19:59.823Z,101692.09
2022-10-13T20:22:30.010Z,101699.03
2022-10-13T20:25:00.487Z,101686.84
2022-10-13T20:27:30.859Z,101692.94
2022-10-13T20:30:01.242Z,101692.09
2022-10-13T20:32:31.298Z,101693.81
2022-10-13T20:35:01.451Z,101688.56
2022-10-13T20:37:31.614Z,101686.84
2022-10-13T20:40:01.906Z,101679.84
2022-10-13T20:42:32.046Z,101677.22
2022-10-13T20:45:02.100Z,101685.94
2022-10-13T20:47:32.503Z,101679.00
2022-10-13T20:50:03.997Z,101673.72
2022-10-13T20:52:34.945Z,101674.63
2022-10-13T20:55:05.231Z,101684.16
2022-10-13T20:57:35.466Z,101674.59
2022-10-13T21:00:06.378Z,101669.34
2022-10-13T21:02:36.906Z,101674.59
2022-10-13T21:05:07.358Z,101671.94
2022-10-13T21:07:37.584Z,101663.25
2022-10-13T21:10:08.785Z,101658.91
2022-10-13T21:12:38.998Z,101666.72
2022-10-13T21:15:09.820Z,101662.38
2022-10-13T21:17:42.415Z,101663.25
2022-10-13T21:20:12.786Z,101668.44
2022-10-13T21:22:43.238Z,101659.75
2022-10-13T21:25:13.837Z,101656.28
2022-10-13T21:27:44.043Z,101650.16
2022-10-13T21:30:14.334Z,101640.56
2022-10-13T21:32:44.885Z,101660.59
2022-10-13T21:35:15.390Z,101651.88
2022-10-13T21:37:45.732Z,101665.84
2022-10-13T21:40:16.053Z,101664.97
2022-10-13T21:42:46.188Z,101664.94
2022-10-13T21:45:16.405Z,101651.88
2022-10-13T21:47:46.681Z,101652.75
2022-10-13T21:50:16.838Z,101637.09
2022-10-13T21:52:46.942Z,101654.50
2022-10-13T21:55:17.175Z,101647.53
2022-10-13T21:57:47.309Z,101647.53
2022-10-13T22:00:17.511Z,101637.97
2022-10-13T22:02:47.603Z,101636.25
2022-10-13T22:05:17.822Z,101638.00
2022-10-13T22:07:48.001Z,101641.47
2022-10-13T22:10:21.751Z,101630.16
2022-10-13T22:12:51.853Z,101630.16
2022-10-13T22:15:22.047Z,101647.56
2022-10-13T22:17:52.287Z,101629.28
2022-10-13T22:20:22.662Z,101644.97
2022-10-13T22:22:52.778Z,101640.56
2022-10-13T22:25:22.890Z,101648.44
2022-10-13T22:27:53.222Z,101644.09
2022-10-13T22:30:23.357Z,101652.78
2022-10-13T22:32:53.470Z,101645.78
2022-10-13T22:35:23.641Z,101660.56
2022-10-13T22:37:53.786Z,101646.63
2022-10-13T22:40:23.909Z,101645.78
2022-10-13T22:42:54.018Z,101641.41
2022-10-13T22:45:24.435Z,101643.16
2022-10-13T22:47:54.586Z,101644.00
2022-10-13T22:50:24.715Z,101622.25
2022-10-13T22:52:54.809Z,101630.09
2022-10-13T22:55:24.902Z,101634.44
2022-10-13T22:57:55.289Z,101636.16
2022-10-13T23:00:25.342Z,101636.13
2022-10-13T23:02:55.504Z,101625.69
2022-10-13T23:05:25.597Z,101623.94
2022-10-13T23:07:56.337Z,101615.22
2022-10-13T23:10:26.530Z,101620.47
2022-10-13T23:12:56.733Z,101628.28
2022-10-13T23:15:26.829Z,101623.06
2022-10-13T23:17:56.946Z,101627.34
2022-10-13T23:20:27.098Z,101624.75
2022-10-13T23:22:57.285Z,101611.69
2022-10-13T23:25:27.433Z,101623.06
2022-10-13T23:27:58.175Z,101620.47
2022-10-13T23:30:28.388Z,101610.91
2022-10-13T23:32:58.438Z,101610.94
2022-10-13T23:35:28.754Z,101595.22
2022-10-13T23:37:58.924Z,101620.47
2022-10-13T23:40:28.990Z,101613.47
2022-10-13T23:42:59.241Z,101603.88
2022-10-13T23:45:29.337Z,101604.78
2022-10-13T23:47:59.483Z,101609.16
2022-10-13T23:50:29.639Z,101597.81
2022-10-13T23:52:59.798Z,101599.59
2022-10-13T23:55:30.409Z,101602.22
2022-10-13T23:58:00.508Z,101596.97
